Latest Coastal Weather Observations for Evans Head

IDN60701

Issued at 7:35 pm EDT Friday 31 October 2014 (issued every 10 minutes, with the page automatically refreshed every 10 minutes)

About coastal observations | Map of coastal stations | Coastal observations for NSW | Marine services | Other Formats
Station Details ID: 058212 Name: EVANS HEAD RAAF BOMBING RANGE AWS Lat: -29.18 Lon: 153.40 Height: 62.5 m
Data from the previous 72 hours. | See also: Recent months at Evans Head
Date/Time
EDT
Temp

°C
Wind Pressure Rain
since 9am
mm
Weather Cloud Vis
km
Sea
Height
m
Swell
Dir
 
Speed
knots
Gust
knots
hPa Trend Height
m
Period
s
Dir
31/07:30pm 22.6 N 16 27 1011.5 - 0.0 - - - - - - -
31/07:00pm 22.7 N 16 26 1011.2 - 0.0 - - - - - - -
31/06:36pm 22.6 N 16 26 1010.9 - 0.0 - - - - - - -
31/06:30pm 22.7 N 17 26 1010.7 - 0.0 - - - - - - -
31/06:00pm 23.8 N 15 21 1010.7 - 0.0 - - - - - - -
31/05:30pm 24.3 N 16 24 1010.8 - 0.0 - - - - - - -
31/05:00pm 24.2 N 15 25 1010.9 - 0.0 - - - - - - -
31/04:32pm 25.7 N 16 26 1010.9 - 0.0 - - - - - - -
31/04:30pm 25.3 N 17 26 1010.8 - 0.0 - - - - - - -
31/04:06pm 26.3 N 15 25 1011.0 - 0.0 - - - - - - -
31/04:00pm 27.4 N 15 23 1011.1 - 0.0 - - - - - - -
31/03:30pm 28.0 N 16 22 1011.4 - 0.0 - - - - - - -
31/03:00pm 28.8 NNE 14 21 1011.7 - 0.0 - - - - - - -
31/02:30pm 29.4 NNE 11 22 1012.2 - 0.0 - - - - - - -
31/02:00pm 28.7 NNE 10 17 1012.9 - 0.0 - - - - - - -
31/01:30pm 30.3 N 11 18 1013.5 - 0.0 - - - - - - -
31/01:00pm 29.4 N 12 17 1013.9 - 0.0 - - - - - - -
31/12:30pm 30.4 N 11 15 1014.3 - 0.0 - - - - - - -
31/12:00pm 29.6 NE 9 14 1014.7 - 0.0 - - - - - - -
31/11:30am 30.1 NNE 8 15 1015.0 - 0.0 - - - - - - -
31/11:00am 29.8 NNE 7 11 1015.5 - 0.0 - - - - - - -
31/10:30am 29.3 NNE 6 10 1015.7 - 0.0 - - - - - - -
31/10:00am 27.5 N 4 7 1015.9 - 0.0 - - - - - - -
31/09:30am 26.7 N 6 10 1016.2 - 0.0 - - - - - - -
31/09:00am 25.4 N 5 8 1016.3 - 0.0 - - - - - - -
31/08:30am 23.6 N 5 8 1016.4 - 0.0 - - - - - - -
31/08:00am 21.4 N 4 6 1016.2 - 0.0 - - - - - - -
31/07:30am 19.3 N 4 6 1016.1 - 0.0 - - - - - - -
31/07:00am 18.3 N 6 8 1015.8 - 0.0 - - - - - - -
31/06:30am 17.5 N 5 6 1015.6 - 0.0 - - - - - - -
31/06:00am 17.0 NNW 5 6 1015.3 - 0.0 - - - - - - -
31/05:30am 17.0 N 5 6 1015.0 - 0.0 - - - - - - -
31/05:00am 17.3 N 4 5 1014.9 - 0.0 - - - - - - -
31/04:30am 17.3 N 5 5 1014.6 - 0.0 - - - - - - -
31/04:00am 17.6 N 5 7 1014.5 - 0.0 - - - - - - -
31/03:30am 17.7 N 5 7 1014.5 - 0.0 - - - - - - -
31/03:00am 18.1 N 5 6 1014.6 - 0.0 - - - - - - -
31/02:30am 18.0 N 5 6 1014.8 - 0.0 - - - - - - -
31/02:00am 18.5 N 6 9 1014.9 - 0.0 - - - - - - -
31/01:30am 18.2 N 4 6 1015.2 - 0.0 - - - - - - -
31/01:00am 18.6 N 5 8 1015.7 - 0.0 - - - - - - -
31/12:30am 18.9 N 6 9 1015.8 - 0.0 - - - - - - -
31/12:00am 19.4 N 6 11 1015.7 - 0.0 - - - - - - -
 
Date/Time
EDT
Temp

°C
Wind Pressure Rain
since 9am
mm
Weather Cloud Vis
km
Sea
Height
m
Swell
Dir
 
Speed
knots
Gust
knots
hPa Trend Height
m
Period
s
Dir
30/11:30pm 19.9 N 12 17 1015.2 - 0.0 - - - - - - -
30/11:00pm 20.1 N 11 18 1015.2 - 0.0 - - - - - - -
30/10:30pm 20.4 N 12 19 1014.9 - 0.0 - - - - - - -
30/10:00pm 20.5 N 12 17 1014.8 - 0.0 - - - - - - -
30/09:30pm 20.7 N 12 19 1015.0 - 0.0 - - - - - - -
30/09:00pm 20.9 NNE 13 21 1014.7 - 0.0 - - - - - - -
30/08:30pm 20.9 NNE 12 20 1014.3 - 0.0 - - - - - - -
30/08:00pm 20.8 N 13 19 1013.9 - 0.0 - - - - - - -
30/07:30pm 20.8 NNE 11 18 1013.8 - 0.0 - - - - - - -
30/07:00pm 21.1 NNE 13 19 1013.5 - 0.0 - - - - - - -
30/06:30pm 21.7 NNE 12 18 1013.1 - 0.0 - - - - - - -
30/06:00pm 22.4 NNE 12 20 1013.0 - 0.0 - - - - - - -
30/05:30pm 22.9 NNE 14 24 1012.7 - 0.0 - - - - - - -
30/05:04pm 23.8 NNE 15 25 1012.7 - 0.0 - - - - - - -
30/05:00pm 23.8 NNE 15 22 1012.7 - 0.0 - - - - - - -
30/04:30pm 23.5 N 17 25 1012.8 - 0.0 - - - - - - -
30/04:00pm 25.6 NNE 11 18 1012.9 - 0.0 - - - - - - -
30/03:30pm 25.6 NNE 12 18 1013.4 - 0.0 - - - - - - -
30/03:00pm 25.8 NE 12 19 1013.7 - 0.0 - - - - - - -
30/02:30pm 25.3 NE 13 21 1014.0 - 0.0 - - - - - - -
30/02:00pm 25.2 ENE 12 18 1014.6 - 0.0 - - - - - - -
30/01:30pm 25.5 ENE 13 18 1014.9 - 0.0 - - - - - - -
30/01:00pm 25.6 E 13 17 1015.5 - 0.0 - - - - - - -
30/12:30pm 25.9 NE 12 17 1015.9 - 0.0 - - - - - - -
30/12:00pm 26.6 ENE 11 16 1016.2 - 0.0 - - - - - - -
30/11:30am 25.8 E 9 14 1016.8 - 0.0 - - - - - - -
30/11:00am 26.0 ENE 4 10 1017.1 - 0.0 - - - - - - -
30/10:30am 27.2 NNE 4 9 1017.4 - 0.0 - - - - - - -
30/10:00am 25.2 NE 7 9 1017.9 - 0.0 - - - - - - -
30/09:30am 25.1 N 2 9 1018.1 - 0.0 - - - - - - -
30/09:00am 24.2 N 3 6 1018.1 - 0.0 - - - - - - -
30/08:30am 22.4 N 2 4 1018.1 - 0.0 - - - - - - -
30/08:00am 21.2 CALM 0 4 1018.1 - 0.0 - - - - - - -
30/07:30am 19.5 WSW 4 5 1017.8 - 0.0 - - - - - - -
30/07:00am 17.8 WSW 6 7 1017.5 - 0.0 - - - - - - -
30/06:30am 16.8 W 7 8 1017.3 - 0.0 - - - - - - -
30/06:00am 17.1 WSW 6 7 1016.9 - 0.0 - - - - - - -
30/05:30am 17.2 WSW 6 7 1016.7 - 0.0 - - - - - - -
30/05:00am 17.2 W 7 7 1016.5 - 0.0 - - - - - - -
30/04:30am 17.2 SW 7 7 1016.5 - 0.0 - - - - - - -
30/04:00am 17.6 WSW 7 8 1016.5 - 0.0 - - - - - - -
30/03:30am 17.5 W 6 7 1016.7 - 0.0 - - - - - - -
30/03:00am 17.5 WSW 7 8 1016.8 - 0.0 - - - - - - -
30/02:30am 17.6 WSW 6 7 1016.8 - 0.0 - - - - - - -
30/02:00am 17.8 WSW 7 7 1017.0 - 0.0 - - - - - - -
30/01:30am 17.9 W 6 7 1017.3 - 0.0 - - - - - - -
30/01:00am 18.0 W 6 7 1017.6 - 0.0 - - - - - - -
30/12:30am 18.2 WSW 6 7 1017.9 - 0.0 - - - - - - -
30/12:00am 18.3 W 6 7 1018.0 - 0.0 - - - - - - -
 
Date/Time
EDT
Temp

°C
Wind Pressure Rain
since 9am
mm
Weather Cloud Vis
km
Sea
Height
m
Swell
Dir
 
Speed
knots
Gust
knots
hPa Trend Height
m
Period
s
Dir
29/11:30pm 18.7 CALM 0 0 1018.1 - 0.0 - - - - - - -
29/11:00pm 19.5 ESE 3 4 1018.1 - 0.0 - - - - - - -
29/10:30pm 19.5 ESE 5 6 1018.0 - 0.0 - - - - - - -
29/10:00pm 19.6 ESE 5 7 1018.0 - 0.0 - - - - - - -
29/09:30pm 19.8 ESE 6 8 1018.1 - 0.0 - - - - - - -
29/09:00pm 19.8 ESE 7 8 1017.7 - 0.0 - - - - - - -
29/08:30pm 20.1 ESE 8 10 1017.3 - 0.0 - - - - - - -
29/08:00pm 20.2 SE 9 12 1016.9 - 0.0 - - - - - - -
29/07:30pm 20.2 SE 8 12 1016.6 - 0.0 - - - - - - -
29/07:00pm 20.6 SE 9 11 1016.3 - 0.0 - - - - - - -
29/06:30pm 21.2 SE 9 12 1016.1 - 0.0 - - - - - - -
29/06:00pm 22.1 SE 9 12 1015.8 - 0.0 - - - - - - -
29/05:30pm 22.7 SE 10 13 1015.4 - 0.0 - - - - - - -
29/05:00pm 23.2 SE 12 15 1015.0 - 0.0 - - - - - - -
29/04:30pm 23.6 SE 12 18 1015.0 - 0.0 - - - - - - -
29/04:00pm 24.4 SE 12 17 1015.1 - 0.0 - - - - - - -
29/03:30pm 25.2 SSE 11 15 1015.3 - 0.0 - - - - - - -
29/03:00pm 24.7 S 13 18 1015.6 - 0.0 - - - - - - -
29/02:30pm 25.2 SSE 13 17 1015.9 - 0.0 - - - - - - -
29/02:00pm 25.4 S 12 17 1016.0 - 0.0 - - - - - - -
29/01:30pm 24.9 S 15 21 1016.0 - 0.0 - - - - - - -
29/01:00pm 25.6 S 13 19 1016.2 - 0.0 - - - - - - -
29/12:30pm 24.9 S 15 21 1016.3 - 0.0 - - - - - - -
29/12:00pm 25.4 S 14 18 1016.5 - 0.0 - - - - - - -
29/11:00am 24.2 S 16 21 1016.7 - 0.0 - - - - - - -
29/10:30am 24.3 S 14 17 1016.7 - 0.0 - - - - - - -
29/10:00am 24.5 S 11 16 1016.6 - 0.0 - - - - - - -
29/09:30am 23.2 S 13 19 1016.4 - 0.0 - - - - - - -
29/09:00am 22.8 S 11 15 1016.1 - 0.0 - - - - - - -
29/08:30am 22.6 S 10 14 1015.6 - 0.0 - - - - - - -
29/08:00am 21.3 SSW 5 8 1015.3 - 0.0 - - - - - - -
29/07:30am 19.2 SW 7 9 1015.0 - 0.0 - - - - - - -
29/07:00am 18.2 SSW 6 8 1014.6 - 0.0 - - - - - - -
29/06:30am 17.8 SW 4 6 1014.2 - 0.0 - - - - - - -
29/06:00am 17.4 SW 6 8 1013.7 - 0.0 - - - - - - -
29/05:30am 17.7 SW 6 8 1013.2 - 0.0 - - - - - - -
29/05:00am 17.6 SW 6 8 1012.6 - 0.0 - - - - - - -
29/04:30am 17.9 SW 5 7 1012.4 - 0.0 - - - - - - -
29/04:00am 18.0 SW 7 8 1012.2 - 0.0 - - - - - - -
29/03:30am 18.1 SW 6 7 1012.1 - 0.0 - - - - - - -
29/03:00am 18.1 WSW 6 7 1012.1 - 0.0 - - - - - - -
29/02:30am 18.1 SW 7 9 1011.9 - 0.0 - - - - - - -
29/02:00am 18.0 SW 6 6 1012.0 - 0.0 - - - - - - -
29/01:30am 18.1 SW 6 8 1012.1 - 0.0 - - - - - - -
29/01:00am 18.3 SSW 7 8 1012.3 - 0.0 - - - - - - -
29/12:30am 18.4 SSW 6 7 1012.6 - 0.0 - - - - - - -
29/12:00am 18.7 SSW 4 5 1012.7 - 0.0 - - - - - - -
 
Date/Time
EDT
Temp

°C
Wind Pressure Rain
since 9am
mm
Weather Cloud Vis
km
Sea
Height
m
Swell
Dir
 
Speed
knots
Gust
knots
hPa Trend Height
m
Period
s
Dir
28/11:30pm 19.1 WSW 4 5 1012.5 - 0.0 - - - - - - -
28/11:00pm 19.1 WSW 2 5 1012.3 - 0.0 - - - - - - -
28/10:30pm 19.2 N 3 5 1012.2 - 0.0 - - - - - - -
28/10:00pm 19.4 N 3 5 1011.9 - 0.0 - - - - - - -
28/09:30pm 20.1 SE 1 3 1011.8 - 0.0 - - - - - - -
28/09:00pm 20.0 ESE 3 4 1011.8 - 0.0 - - - - - - -
28/08:30pm 20.3 E 4 5 1011.5 - 0.0 - - - - - - -
28/08:00pm 20.2 ESE 3 5 1011.2 - 0.0 - - - - - - -

Other Formats:

Comma delimited format used in spreadsheet applications
http://www.bom.gov.au/fwo/IDN60701/IDN60701.94598.axf

JavaScript Object Notation format (JSON) in row-major order
http://www.bom.gov.au/fwo/IDN60701/IDN60701.94598.json